Ital Oriente — A8LN2 — position and weather

sailwx.info

Track history (hours):
 
Tides and Currents Weather Stations Pressure Air Temp Water Temp Dewpoint Dewpoint Depression Visibility Wind Speed Wind Dir Waves Ship Positions

Ital Oriente

Last reported at 2017-Jul-26 23:51 UTC. Time now 2017-Jul-27 00:25 UTC.
Position N 30°55' W 011°17'.

Length 227 m; draft 9.6 m.

Type: Cargo ship. MMSI: 636091278.

Date/timePositionNaut miles runAvg speedWind from/ knotsBaromVisibWave heightAir tempDewpointWater temp
2017-Jul-26 23:51N 30°55' W 011°17'615.9
2017-Jul-26 23:30N 30°51' W 011°21'815.5
2017-Jul-26 23:00N 30°44' W 011°26'816.0
2017-Jul-26 22:29N 30°37' W 011°32'816.2
2017-Jul-26 22:00N 30°31' W 011°37'816.0
2017-Jul-26 21:29N 30°24' W 011°42'816.5
2017-Jul-26 20:59N 30°18' W 011°48'816.5
2017-Jul-26 20:31N 30°11' W 011°53'816.4
2017-Jul-26 20:00N 30°04' W 011°59'816.6
2017-Jul-26 19:30N 29°58' W 012°04'816.6
2017-Jul-26 19:00N 29°51' W 012°10'816.4
2017-Jul-26 18:30N 29°44' W 012°15'816.6
2017-Jul-26 18:00N 29°37' W 012°21'3223.6
2017-Jul-26 18:00N 29°36' W 012°18'918.5 360 / 241012.0 5.4 23.0 22.0
2017-Jul-26 17:30N 29°30' W 012°26'816.5
2017-Jul-26 17:00N 29°24' W 012°32'817.0
2017-Jul-26 16:30N 29°17' W 012°37'816.5
2017-Jul-26 16:00N 29°10' W 012°42'816.6
2017-Jul-26 15:30N 29°03' W 012°48'816.8
2017-Jul-26 15:00N 28°56' W 012°53'1616.3
2017-Jul-26 14:00N 28°43' W 013°04'816.4
2017-Jul-26 13:30N 28°36' W 013°09'816.5
2017-Jul-26 13:00N 28°29' W 013°15'816.3
2017-Jul-26 12:30N 28°23' W 013°20'816.4
2017-Jul-26 12:00N 28°16' W 013°26'4340.1
2017-Jul-26 12:00N 28°12' W 013°24'714.0 020 / 231013.0 5.4 22.0 22.0
2017-Jul-26 11:30N 28°09' W 013°31'917.0
2017-Jul-26 11:00N 28°02' W 013°37'916.9
2017-Jul-26 10:30N 27°55' W 013°42'816.9
2017-Jul-26 10:00N 27°48' W 013°47'816.7
2017-Jul-26 09:30N 27°41' W 013°53'816.7
2017-Jul-26 09:00N 27°35' W 013°58'816.7
2017-Jul-26 08:31N 27°28' W 014°04'816.4
2017-Jul-26 08:00N 27°21' W 014°09'816.8
2017-Jul-26 07:29N 27°14' W 014°15'916.8
2017-Jul-26 06:58N 27°07' W 014°20'2017.2
2017-Jul-26 05:48N 26°50' W 014°33'1817.1
2017-Jul-26 04:47N 26°36' W 014°44'616.6
2017-Jul-26 04:24N 26°31' W 014°48'6916.4
2017-Jul-26 00:10N 25°34' W 015°33'1616.2
2017-Jul-25 23:10N 25°21' W 015°43'316.1
2017-Jul-25 23:00N 25°18' W 015°44'1516.2
2017-Jul-25 22:04N 25°06' W 015°54'7117.4
2017-Jul-25 18:00N 24°06' W 016°36'39616.5 340 / 241012.0 5.4 22.0 23.0
2017-Jul-24 18:00N 17°36' W 017°48'10818.0 340 / 201013.0 5.4 26.0 27.0
2017-Jul-24 12:00N 15°48' W 017°42'84217.5 340 / 151016.010.8 28.0 29.0
2017-Jul-22 12:00N 04°36' W 009°06'   200 / 201016.010.8 29.0 28.0
2017-Jul-19 12:00N 05°12' W 004°00'134 7.5 220 / 71018.010.8 28.0 22.0
2017-Jul-18 18:00N 04°24' W 001°54'7612.6 190 / 141014.0 5.4 27.0 26.0
2017-Jul-18 12:00N 04°48' W 000°42'3813.2 220 / 151016.010.8 27.0 25.0
2017-Jul-18 09:07N 05°13' W 000°14'213.8
2017-Jul-18 09:00N 05°14' W 000°13'713.8
2017-Jul-18 08:30N 05°19' W 000°08'713.9
2017-Jul-18 08:00N 05°25' W 000°04'713.9
2017-Jul-18 07:31N 05°31' E 000°00'713.3
2017-Jul-18 07:00N 05°37' E 000°03'3 5.9
2017-Jul-18 06:30N 05°37' E 000°01'0 0.2
2017-Jul-18 06:00N 05°37' E 000°00'0 0.0
2017-Jul-18 05:30N 05°37' E 000°00'0 0.0
2017-Jul-18 05:00N 05°37' E 000°00'0 0.0
2017-Jul-18 04:30N 05°37' E 000°00'0 0.0
2017-Jul-18 04:00N 05°37' E 000°00'0 0.0
2017-Jul-18 03:30N 05°37' E 000°00'0 0.0
2017-Jul-18 03:00N 05°37' E 000°00'0 0.0
2017-Jul-18 02:30N 05°37' E 000°00'0 0.0
2017-Jul-18 02:00N 05°37' E 000°00'0 0.0
2017-Jul-18 01:30N 05°37' E 000°00'0 0.0
2017-Jul-18 01:00N 05°37' E 000°00'0 0.0
2017-Jul-18 00:30N 05°37' E 000°00'0 0.0
2017-Jul-18 00:00N 05°37' E 000°00'0 0.0
2017-Jul-17 23:30N 05°37' E 000°00'0 0.0
2017-Jul-17 23:00N 05°37' E 000°00'0 0.0
2017-Jul-17 22:30N 05°37' E 000°00'0 0.0
2017-Jul-17 22:00N 05°37' E 000°00'0 0.0
2017-Jul-17 21:30N 05°37' E 000°00'0 0.0
2017-Jul-17 21:00N 05°37' E 000°00'0 0.0
2017-Jul-17 20:30N 05°37' E 000°00'0 0.0
2017-Jul-17 20:00N 05°37' E 000°00'0 0.0
2017-Jul-17 19:30N 05°37' E 000°00'0 0.0
2017-Jul-17 19:00N 05°37' E 000°00'0 0.0
2017-Jul-17 18:30N 05°37' E 000°00'0 0.0
2017-Jul-17 18:00N 05°37' E 000°00'0 0.0
2017-Jul-17 17:30N 05°37' E 000°00'0 0.0
2017-Jul-17 17:00N 05°37' E 000°00'0 0.0
2017-Jul-17 16:30N 05°37' E 000°00'0 0.0
2017-Jul-17 16:00N 05°37' E 000°00'0 0.0
2017-Jul-17 15:30N 05°37' E 000°00'0 0.0
2017-Jul-17 15:00N 05°37' E 000°00'0 0.0
2017-Jul-17 14:30N 05°37' E 000°00'0 0.0
2017-Jul-17 14:00N 05°37' E 000°00'0 0.0
2017-Jul-17 13:24N 05°37' E 000°00'0 0.0
2017-Jul-17 13:00N 05°37' E 000°00'0 0.0
2017-Jul-17 12:30N 05°37' E 000°00'0 0.0
2017-Jul-17 12:00N 05°37' E 000°00'0 0.0
2017-Jul-17 11:30N 05°37' E 000°00'0 0.0
2017-Jul-17 11:00N 05°37' E 000°00'0 0.0
2017-Jul-17 10:30N 05°37' E 000°00'0 0.0
2017-Jul-17 10:00N 05°37' E 000°00'0 0.0
2017-Jul-17 09:30N 05°37' E 000°00'0 0.0
2017-Jul-17 09:00N 05°37' E 000°00'0 0.0
2017-Jul-17 08:30N 05°37' E 000°00'0 0.0
2017-Jul-17 08:00N 05°37' E 000°00'0 0.0
2017-Jul-17 07:30N 05°37' E 000°00'0 0.0
2017-Jul-17 07:00N 05°37' E 000°00'0 0.0
2017-Jul-17 06:30N 05°37' E 000°00'0 0.0
2017-Jul-17 06:00N 05°37' E 000°00'0 0.0
2017-Jul-17 05:30N 05°37' E 000°00'0 0.0
2017-Jul-17 05:00N 05°37' E 000°00'0 0.0
2017-Jul-17 04:30N 05°37' E 000°00'0 0.0
2017-Jul-17 04:00N 05°37' E 000°00'0 0.0
2017-Jul-17 03:30N 05°37' E 000°00'0 0.0
2017-Jul-17 03:00N 05°37' E 000°00'0 0.0
2017-Jul-17 02:30N 05°37' E 000°00'0 0.0
2017-Jul-17 02:00N 05°37' E 000°00'0 0.0
2017-Jul-17 01:30N 05°37' E 000°00'0 0.0
2017-Jul-17 01:00N 05°37' E 000°00'0 0.0
2017-Jul-17 00:30N 05°37' E 000°00'0 0.0
2017-Jul-17 00:00N 05°37' E 000°00'  
Track history (hours):
 
Tides and Currents Weather Stations Pressure Air Temp Water Temp Dewpoint Dewpoint Depression Visibility Wind Speed Wind Dir Waves Ship Positions

Ital Oriente

Last reported at 2017-Jul-26 23:51 UTC. Time now 2017-Jul-27 00:25 UTC.
Position N 30°55' W 011°17'.

Length 227 m; draft 9.6 m.

Type: Cargo ship. MMSI: 636091278.

Date/timePositionNaut miles runAvg speedWind from/ knotsBaromVisibWave heightAir tempDewpointWater temp
2017-Jul-26 23:51N 30°55' W 011°17'615.9
2017-Jul-26 23:30N 30°51' W 011°21'815.5
2017-Jul-26 23:00N 30°44' W 011°26'816.0
2017-Jul-26 22:29N 30°37' W 011°32'816.2
2017-Jul-26 22:00N 30°31' W 011°37'816.0
2017-Jul-26 21:29N 30°24' W 011°42'816.5
2017-Jul-26 20:59N 30°18' W 011°48'816.5
2017-Jul-26 20:31N 30°11' W 011°53'816.4
2017-Jul-26 20:00N 30°04' W 011°59'816.6
2017-Jul-26 19:30N 29°58' W 012°04'816.6
2017-Jul-26 19:00N 29°51' W 012°10'816.4
2017-Jul-26 18:30N 29°44' W 012°15'816.6
2017-Jul-26 18:00N 29°37' W 012°21'3223.6
2017-Jul-26 18:00N 29°36' W 012°18'918.5 360 / 241012.0 5.4 23.0 22.0
2017-Jul-26 17:30N 29°30' W 012°26'816.5
2017-Jul-26 17:00N 29°24' W 012°32'817.0
2017-Jul-26 16:30N 29°17' W 012°37'816.5
2017-Jul-26 16:00N 29°10' W 012°42'816.6
2017-Jul-26 15:30N 29°03' W 012°48'816.8
2017-Jul-26 15:00N 28°56' W 012°53'1616.3
2017-Jul-26 14:00N 28°43' W 013°04'816.4
2017-Jul-26 13:30N 28°36' W 013°09'816.5
2017-Jul-26 13:00N 28°29' W 013°15'816.3
2017-Jul-26 12:30N 28°23' W 013°20'816.4
2017-Jul-26 12:00N 28°16' W 013°26'4340.1
2017-Jul-26 12:00N 28°12' W 013°24'714.0 020 / 231013.0 5.4 22.0 22.0
2017-Jul-26 11:30N 28°09' W 013°31'917.0
2017-Jul-26 11:00N 28°02' W 013°37'916.9
2017-Jul-26 10:30N 27°55' W 013°42'816.9
2017-Jul-26 10:00N 27°48' W 013°47'816.7
2017-Jul-26 09:30N 27°41' W 013°53'816.7
2017-Jul-26 09:00N 27°35' W 013°58'816.7
2017-Jul-26 08:31N 27°28' W 014°04'816.4
2017-Jul-26 08:00N 27°21' W 014°09'816.8
2017-Jul-26 07:29N 27°14' W 014°15'916.8
2017-Jul-26 06:58N 27°07' W 014°20'2017.2
2017-Jul-26 05:48N 26°50' W 014°33'1817.1
2017-Jul-26 04:47N 26°36' W 014°44'616.6
2017-Jul-26 04:24N 26°31' W 014°48'6916.4
2017-Jul-26 00:10N 25°34' W 015°33'1616.2
2017-Jul-25 23:10N 25°21' W 015°43'316.1
2017-Jul-25 23:00N 25°18' W 015°44'1516.2
2017-Jul-25 22:04N 25°06' W 015°54'7117.4
2017-Jul-25 18:00N 24°06' W 016°36'39616.5 340 / 241012.0 5.4 22.0 23.0
2017-Jul-24 18:00N 17°36' W 017°48'10818.0 340 / 201013.0 5.4 26.0 27.0
2017-Jul-24 12:00N 15°48' W 017°42'84217.5 340 / 151016.010.8 28.0 29.0
2017-Jul-22 12:00N 04°36' W 009°06'   200 / 201016.010.8 29.0 28.0
2017-Jul-19 12:00N 05°12' W 004°00'134 7.5 220 / 71018.010.8 28.0 22.0
2017-Jul-18 18:00N 04°24' W 001°54'7612.6 190 / 141014.0 5.4 27.0 26.0
2017-Jul-18 12:00N 04°48' W 000°42'3813.2 220 / 151016.010.8 27.0 25.0
2017-Jul-18 09:07N 05°13' W 000°14'213.8
2017-Jul-18 09:00N 05°14' W 000°13'713.8
2017-Jul-18 08:30N 05°19' W 000°08'713.9
2017-Jul-18 08:00N 05°25' W 000°04'713.9
2017-Jul-18 07:31N 05°31' E 000°00'713.3
2017-Jul-18 07:00N 05°37' E 000°03'3 5.9
2017-Jul-18 06:30N 05°37' E 000°01'0 0.2
2017-Jul-18 06:00N 05°37' E 000°00'0 0.0
2017-Jul-18 05:30N 05°37' E 000°00'0 0.0
2017-Jul-18 05:00N 05°37' E 000°00'0 0.0
2017-Jul-18 04:30N 05°37' E 000°00'0 0.0
2017-Jul-18 04:00N 05°37' E 000°00'0 0.0
2017-Jul-18 03:30N 05°37' E 000°00'0 0.0
2017-Jul-18 03:00N 05°37' E 000°00'0 0.0
2017-Jul-18 02:30N 05°37' E 000°00'0 0.0
2017-Jul-18 02:00N 05°37' E 000°00'0 0.0
2017-Jul-18 01:30N 05°37' E 000°00'0 0.0
2017-Jul-18 01:00N 05°37' E 000°00'0 0.0
2017-Jul-18 00:30N 05°37' E 000°00'0 0.0
2017-Jul-18 00:00N 05°37' E 000°00'0 0.0
2017-Jul-17 23:30N 05°37' E 000°00'0 0.0
2017-Jul-17 23:00N 05°37' E 000°00'0 0.0
2017-Jul-17 22:30N 05°37' E 000°00'0 0.0
2017-Jul-17 22:00N 05°37' E 000°00'0 0.0
2017-Jul-17 21:30N 05°37' E 000°00'0 0.0
2017-Jul-17 21:00N 05°37' E 000°00'0 0.0
2017-Jul-17 20:30N 05°37' E 000°00'0 0.0
2017-Jul-17 20:00N 05°37' E 000°00'0 0.0
2017-Jul-17 19:30N 05°37' E 000°00'0 0.0
2017-Jul-17 19:00N 05°37' E 000°00'0 0.0
2017-Jul-17 18:30N 05°37' E 000°00'0 0.0
2017-Jul-17 18:00N 05°37' E 000°00'0 0.0
2017-Jul-17 17:30N 05°37' E 000°00'0 0.0
2017-Jul-17 17:00N 05°37' E 000°00'0 0.0
2017-Jul-17 16:30N 05°37' E 000°00'0 0.0
2017-Jul-17 16:00N 05°37' E 000°00'0 0.0
2017-Jul-17 15:30N 05°37' E 000°00'0 0.0
2017-Jul-17 15:00N 05°37' E 000°00'0 0.0
2017-Jul-17 14:30N 05°37' E 000°00'0 0.0
2017-Jul-17 14:00N 05°37' E 000°00'0 0.0
2017-Jul-17 13:24N 05°37' E 000°00'0 0.0
2017-Jul-17 13:00N 05°37' E 000°00'0 0.0
2017-Jul-17 12:30N 05°37' E 000°00'0 0.0
2017-Jul-17 12:00N 05°37' E 000°00'0 0.0
2017-Jul-17 11:30N 05°37' E 000°00'0 0.0
2017-Jul-17 11:00N 05°37' E 000°00'0 0.0
2017-Jul-17 10:30N 05°37' E 000°00'0 0.0
2017-Jul-17 10:00N 05°37' E 000°00'0 0.0
2017-Jul-17 09:30N 05°37' E 000°00'0 0.0
2017-Jul-17 09:00N 05°37' E 000°00'0 0.0
2017-Jul-17 08:30N 05°37' E 000°00'0 0.0
2017-Jul-17 08:00N 05°37' E 000°00'0 0.0
2017-Jul-17 07:30N 05°37' E 000°00'0 0.0
2017-Jul-17 07:00N 05°37' E 000°00'0 0.0
2017-Jul-17 06:30N 05°37' E 000°00'0 0.0
2017-Jul-17 06:00N 05°37' E 000°00'0 0.0
2017-Jul-17 05:30N 05°37' E 000°00'0 0.0
2017-Jul-17 05:00N 05°37' E 000°00'0 0.0
2017-Jul-17 04:30N 05°37' E 000°00'0 0.0
2017-Jul-17 04:00N 05°37' E 000°00'0 0.0
2017-Jul-17 03:30N 05°37' E 000°00'0 0.0
2017-Jul-17 03:00N 05°37' E 000°00'0 0.0
2017-Jul-17 02:30N 05°37' E 000°00'0 0.0
2017-Jul-17 02:00N 05°37' E 000°00'0 0.0
2017-Jul-17 01:30N 05°37' E 000°00'0 0.0
2017-Jul-17 01:00N 05°37' E 000°00'0 0.0
2017-Jul-17 00:30N 05°37' E 000°00'0 0.0
2017-Jul-17 00:00N 05°37' E 000°00'  

Dump ship's entire track history